createdAt,value
2023-10-27T00:00:56.675Z,22.55
2023-10-27T00:03:23.365Z,23.57
2023-10-27T00:05:50.087Z,24.20
2023-10-27T00:08:16.900Z,23.27
2023-10-27T00:10:43.784Z,23.55
2023-10-27T00:13:10.553Z,23.83
2023-10-27T00:15:37.358Z,22.87
2023-10-27T00:18:04.463Z,24.67
2023-10-27T00:20:33.063Z,22.80
2023-10-27T00:22:59.735Z,23.63
2023-10-27T00:25:26.479Z,24.52
2023-10-27T00:27:53.183Z,22.43
2023-10-27T00:30:19.900Z,23.38
2023-10-27T00:32:47.417Z,24.27
2023-10-27T00:35:14.753Z,22.90
2023-10-27T00:37:41.966Z,22.70
2023-10-27T00:40:09.417Z,22.70
2023-10-27T00:42:36.189Z,23.50
2023-10-27T00:45:03.305Z,23.73
2023-10-27T00:47:31.408Z,24.30
2023-10-27T00:49:58.528Z,23.08
2023-10-27T00:52:26.865Z,24.10
2023-10-27T00:54:55.188Z,23.50
2023-10-27T00:57:24.160Z,24.27
2023-10-27T00:59:54.185Z,23.05
2023-10-27T01:02:22.293Z,24.25
2023-10-27T01:04:49.940Z,24.33
2023-10-27T01:07:17.169Z,23.98
2023-10-27T01:09:44.173Z,23.52
2023-10-27T01:12:10.958Z,24.33
2023-10-27T01:14:38.938Z,23.38
2023-10-27T01:17:05.592Z,22.00
2023-10-27T01:19:32.467Z,24.38
2023-10-27T01:21:59.188Z,21.98
2023-10-27T01:24:25.930Z,24.35
2023-10-27T01:26:52.617Z,23.70
2023-10-27T01:29:19.366Z,25.00
2023-10-27T01:31:45.959Z,24.10
2023-10-27T01:34:12.744Z,25.10
2023-10-27T01:36:39.368Z,22.88
2023-10-27T01:39:06.115Z,23.02
2023-10-27T01:41:32.956Z,23.27
2023-10-27T01:43:59.859Z,23.77
2023-10-27T01:46:26.592Z,25.52
2023-10-27T01:48:54.940Z,22.40
2023-10-27T01:51:22.325Z,23.23
2023-10-27T01:53:49.560Z,23.00
2023-10-27T01:56:16.522Z,23.15
2023-10-27T01:58:45.454Z,21.90
2023-10-27T02:01:15.554Z,23.27
2023-10-27T02:03:42.753Z,21.73
2023-10-27T02:06:09.662Z,22.03
2023-10-27T02:08:36.556Z,22.30
2023-10-27T02:11:04.211Z,23.95
2023-10-27T02:13:31.059Z,23.95
2023-10-27T02:15:58.052Z,24.20
2023-10-27T02:18:24.748Z,21.87
2023-10-27T02:20:51.423Z,22.83
2023-10-27T02:23:18.575Z,24.35
2023-10-27T02:25:45.565Z,22.73
2023-10-27T02:28:12.413Z,22.17
2023-10-27T02:30:39.173Z,22.60
2023-10-27T02:33:05.960Z,21.95
2023-10-27T02:35:32.794Z,21.88
2023-10-27T02:37:59.830Z,23.30
2023-10-27T02:40:26.500Z,22.08
2023-10-27T02:42:53.730Z,21.43
2023-10-27T02:45:20.611Z,20.60
2023-10-27T02:47:47.428Z,21.77
2023-10-27T02:50:14.495Z,22.17
2023-10-27T02:52:41.206Z,20.73
2023-10-27T02:55:08.872Z,19.93
2023-10-27T02:57:35.536Z,18.83
2023-10-27T03:00:02.771Z,19.80
2023-10-27T03:02:29.503Z,19.23
2023-10-27T03:04:57.027Z,19.83
2023-10-27T03:07:24.052Z,19.33
2023-10-27T03:09:50.774Z,18.85
2023-10-27T03:12:17.796Z,19.75
2023-10-27T03:14:45.080Z,18.70
2023-10-27T03:17:11.808Z,20.10
2023-10-27T03:19:38.593Z,19.63
2023-10-27T03:22:05.741Z,17.45
2023-10-27T03:24:32.716Z,18.23
2023-10-27T03:26:59.356Z,18.48
2023-10-27T03:29:26.197Z,16.98
2023-10-27T03:31:53.065Z,18.23
2023-10-27T03:34:19.814Z,16.65
2023-10-27T03:36:46.545Z,15.80
2023-10-27T03:39:13.649Z,17.00
2023-10-27T03:41:40.271Z,16.23
2023-10-27T03:44:07.975Z,18.10
2023-10-27T03:46:34.626Z,17.27
2023-10-27T03:49:01.548Z,17.55
2023-10-27T03:51:28.377Z,17.05
2023-10-27T03:53:55.920Z,16.35
2023-10-27T03:56:22.699Z,16.33
2023-10-27T03:58:49.421Z,15.35
2023-10-27T04:01:16.949Z,16.67
2023-10-27T04:03:43.982Z,16.75
2023-10-27T04:06:12.594Z,15.43
2023-10-27T04:08:39.352Z,14.13
2023-10-27T04:11:06.019Z,14.88
2023-10-27T04:13:32.714Z,15.82
2023-10-27T04:15:59.424Z,14.73
2023-10-27T04:18:26.155Z,14.35
2023-10-27T04:20:52.891Z,14.17
2023-10-27T04:23:19.560Z,13.18
2023-10-27T04:25:46.252Z,13.90
2023-10-27T04:28:12.958Z,14.15
2023-10-27T04:30:39.756Z,13.70
2023-10-27T04:33:07.280Z,12.47
2023-10-27T04:35:34.297Z,13.82
2023-10-27T04:38:01.173Z,12.35
2023-10-27T04:40:32.861Z,12.38
2023-10-27T04:43:01.086Z,12.93
2023-10-27T04:45:28.341Z,12.80
2023-10-27T04:47:55.803Z,12.02
2023-10-27T04:50:23.523Z,12.82
2023-10-27T04:52:50.199Z,11.63
2023-10-27T04:55:17.197Z,12.50
2023-10-27T04:57:44.036Z,11.60
2023-10-27T05:00:11.232Z,10.93
2023-10-27T05:02:38.136Z,11.18
2023-10-27T05:05:05.439Z,10.27
2023-10-27T05:07:32.237Z,10.38
2023-10-27T05:09:58.961Z,10.10
2023-10-27T05:12:25.751Z,10.02
2023-10-27T05:14:52.491Z,9.07
2023-10-27T05:17:19.260Z,9.75
2023-10-27T05:19:46.405Z,9.10
2023-10-27T05:22:14.523Z,9.83
2023-10-27T05:24:41.885Z,9.20
2023-10-27T05:27:08.869Z,42.45
2023-10-27T05:29:35.513Z,16.20
2023-10-27T05:32:02.162Z,10.00
2023-10-27T05:34:31.973Z,9.43
2023-10-27T05:36:59.300Z,9.45
2023-10-27T05:39:28.001Z,10.00
2023-10-27T05:41:55.017Z,9.93
2023-10-27T05:44:22.097Z,8.60
2023-10-27T05:46:49.181Z,8.73
2023-10-27T05:49:15.993Z,8.65
2023-10-27T05:51:42.654Z,7.35
2023-10-27T05:54:09.403Z,8.18
2023-10-27T05:56:36.068Z,7.82
2023-10-27T05:59:02.935Z,8.20
2023-10-27T06:01:29.692Z,7.35
2023-10-27T06:03:58.863Z,8.15
2023-10-27T06:06:26.804Z,8.18
2023-10-27T06:08:53.692Z,7.88
2023-10-27T06:11:20.621Z,7.50
2023-10-27T06:13:47.373Z,6.97
2023-10-27T06:16:14.091Z,7.65
2023-10-27T06:18:41.053Z,6.95
2023-10-27T06:21:07.800Z,7.53
2023-10-27T06:23:34.501Z,6.77
2023-10-27T06:26:01.428Z,7.43
2023-10-27T06:28:28.150Z,6.78
2023-10-27T06:30:54.912Z,6.70
2023-10-27T06:33:23.285Z,6.97
2023-10-27T06:35:50.243Z,7.10
2023-10-27T06:38:16.923Z,7.55
2023-10-27T06:40:43.654Z,7.68
2023-10-27T06:43:10.438Z,7.82
2023-10-27T06:45:37.131Z,7.20
2023-10-27T06:48:04.116Z,7.60
2023-10-27T06:50:31.032Z,7.05
2023-10-27T06:52:57.745Z,7.50
2023-10-27T06:55:24.510Z,7.35
2023-10-27T06:57:51.278Z,7.20
2023-10-27T07:00:18.179Z,7.63
2023-10-27T07:02:55.787Z,6.72
2023-10-27T07:05:24.805Z,6.50
2023-10-27T07:07:52.331Z,6.68
2023-10-27T07:10:19.095Z,6.95
2023-10-27T07:12:45.782Z,6.63
2023-10-27T07:15:14.205Z,7.03
2023-10-27T07:17:42.364Z,7.13
2023-10-27T07:20:09.839Z,6.88
2023-10-27T07:22:37.814Z,6.75
2023-10-27T07:25:05.855Z,6.53
2023-10-27T07:27:34.323Z,6.53
2023-10-27T07:30:01.193Z,6.10
2023-10-27T07:32:27.945Z,5.63
2023-10-27T07:34:54.789Z,6.00
2023-10-27T07:37:24.437Z,5.17
2023-10-27T07:39:51.173Z,6.10
2023-10-27T07:42:17.852Z,5.30
2023-10-27T07:44:44.780Z,5.30
2023-10-27T07:47:11.937Z,5.38
2023-10-27T07:49:38.635Z,5.40
2023-10-27T07:52:06.973Z,5.47
2023-10-27T07:54:33.870Z,5.03
2023-10-27T07:57:00.740Z,4.68
2023-10-27T07:59:29.065Z,5.22
2023-10-27T08:02:00.696Z,4.83
2023-10-27T08:04:28.138Z,4.85
2023-10-27T08:06:55.052Z,5.22
2023-10-27T08:09:21.796Z,4.82
2023-10-27T08:11:51.944Z,5.28
2023-10-27T08:14:18.770Z,5.00
2023-10-27T08:16:46.179Z,5.05
2023-10-27T08:19:14.319Z,5.07
2023-10-27T08:21:47.589Z,4.93
2023-10-27T08:24:14.294Z,5.10
2023-10-27T08:26:41.148Z,5.00
2023-10-27T08:29:07.818Z,4.47
2023-10-27T08:31:34.950Z,5.35
2023-10-27T08:34:02.160Z,4.80
2023-10-27T08:36:28.846Z,5.63
2023-10-27T08:38:56.089Z,5.00
2023-10-27T08:41:26.368Z,4.72
2023-10-27T08:43:57.083Z,4.60
2023-10-27T08:46:25.930Z,4.80
2023-10-27T08:48:52.779Z,4.63
2023-10-27T08:51:21.900Z,4.47
2023-10-27T08:53:48.948Z,4.32
2023-10-27T08:56:16.214Z,4.47
2023-10-27T08:58:52.685Z,4.10
2023-10-27T09:01:19.569Z,4.22
2023-10-27T09:04:15.049Z,4.80
2023-10-27T09:06:43.016Z,4.95
2023-10-27T09:09:12.994Z,4.80
2023-10-27T09:11:44.870Z,5.00
2023-10-27T09:14:23.893Z,5.10
2023-10-27T09:16:52.208Z,4.60
2023-10-27T09:19:20.233Z,4.57
2023-10-27T09:21:46.906Z,4.88
2023-10-27T09:24:28.539Z,4.68
2023-10-27T09:26:57.616Z,4.72
2023-10-27T09:29:24.971Z,4.43
2023-10-27T09:31:52.550Z,4.38
2023-10-27T09:34:27.380Z,4.70
2023-10-27T09:36:59.421Z,3.97
2023-10-27T09:39:27.238Z,4.80
2023-10-27T09:42:05.539Z,5.10
2023-10-27T09:44:46.386Z,4.32
2023-10-27T09:47:19.864Z,4.38
2023-10-27T09:49:52.550Z,4.60
2023-10-27T09:52:22.060Z,4.00
2023-10-27T09:54:57.622Z,4.47
2023-10-27T09:57:29.880Z,4.60
2023-10-27T09:59:59.149Z,3.90
2023-10-27T10:02:26.546Z,4.47
2023-10-27T10:04:53.309Z,4.78
2023-10-27T10:07:29.912Z,3.77
2023-10-27T10:09:57.078Z,4.40
2023-10-27T10:12:23.735Z,3.85
2023-10-27T10:14:51.159Z,3.58
2023-10-27T10:17:41.454Z,4.18
2023-10-27T10:20:10.384Z,3.77
2023-10-27T10:22:45.672Z,4.00
2023-10-27T10:25:24.538Z,3.50
2023-10-27T10:28:12.684Z,3.63
2023-10-27T10:30:44.520Z,3.42
2023-10-27T10:33:20.698Z,3.57
2023-10-27T10:35:48.203Z,3.30
2023-10-27T10:38:24.042Z,3.05
2023-10-27T10:40:53.152Z,3.60
2023-10-27T10:43:37.745Z,3.47
2023-10-27T10:46:13.674Z,3.43
2023-10-27T10:48:45.756Z,3.63
2023-10-27T10:51:33.450Z,3.58
2023-10-27T10:54:00.075Z,3.03
2023-10-27T10:56:26.749Z,3.20
2023-10-27T10:58:54.109Z,3.60
2023-10-27T11:01:22.970Z,3.40
2023-10-27T11:03:52.302Z,3.40
2023-10-27T11:06:23.862Z,3.13
2023-10-27T11:08:50.932Z,3.42
2023-10-27T11:11:18.826Z,3.37
2023-10-27T11:13:51.173Z,2.78
2023-10-27T11:16:23.451Z,3.58
2023-10-27T11:18:53.827Z,3.15
2023-10-27T11:21:23.768Z,3.28
2023-10-27T11:23:52.055Z,3.07
2023-10-27T11:26:21.324Z,2.88
2023-10-27T11:28:48.626Z,3.20
2023-10-27T11:31:24.617Z,3.10
2023-10-27T11:34:04.754Z,3.35
2023-10-27T11:36:36.600Z,3.63
2023-10-27T11:39:20.482Z,3.67
2023-10-27T11:42:00.479Z,3.60
2023-10-27T11:44:28.202Z,3.40
2023-10-27T11:47:05.819Z,3.42
2023-10-27T11:49:33.467Z,3.70
2023-10-27T11:52:00.510Z,3.60
2023-10-27T11:54:28.572Z,3.80
2023-10-27T11:56:55.527Z,3.83
2023-10-27T11:59:26.998Z,3.60
2023-10-27T12:01:54.567Z,3.73
2023-10-27T12:04:21.619Z,4.15
2023-10-27T12:06:48.741Z,4.13
2023-10-27T12:09:15.506Z,3.97
2023-10-27T12:11:45.009Z,3.47
2023-10-27T12:14:12.146Z,3.53
2023-10-27T12:16:39.176Z,3.30
2023-10-27T12:19:05.913Z,3.78
2023-10-27T12:21:34.316Z,3.80
2023-10-27T12:24:01.316Z,3.65
2023-10-27T12:26:28.876Z,4.43
2023-10-27T12:28:55.694Z,4.00
2023-10-27T12:31:22.491Z,3.70
2023-10-27T12:33:52.662Z,4.13
2023-10-27T12:36:19.639Z,4.05
2023-10-27T12:38:46.418Z,3.83
2023-10-27T12:41:14.536Z,3.22
2023-10-27T12:43:41.536Z,3.45
2023-10-27T12:46:08.378Z,3.90
2023-10-27T12:48:35.123Z,3.50
2023-10-27T12:51:02.822Z,3.60
2023-10-27T12:53:29.632Z,3.83
2023-10-27T12:55:57.107Z,3.53
2023-10-27T12:58:24.371Z,3.15
2023-10-27T13:00:52.428Z,3.85
2023-10-27T13:03:19.689Z,3.17
2023-10-27T13:05:46.545Z,3.33
2023-10-27T13:08:13.801Z,3.35
2023-10-27T13:10:40.750Z,3.33
2023-10-27T13:13:07.904Z,2.70
2023-10-27T13:15:35.269Z,3.37
2023-10-27T13:18:03.919Z,3.25
2023-10-27T13:20:31.869Z,3.13
2023-10-27T13:22:58.653Z,3.30
2023-10-27T13:25:25.939Z,2.80
2023-10-27T13:27:53.844Z,2.70
2023-10-27T13:30:21.738Z,11.98
2023-10-27T13:32:51.013Z,4.07
2023-10-27T13:35:18.350Z,3.45
2023-10-27T13:37:45.104Z,3.13
2023-10-27T13:40:15.190Z,2.20
2023-10-27T13:42:41.989Z,2.45
2023-10-27T13:45:09.068Z,2.05
2023-10-27T13:47:35.725Z,1.92
2023-10-27T13:50:04.807Z,2.20
2023-10-27T13:52:31.876Z,1.77
2023-10-27T13:54:59.459Z,2.42
2023-10-27T13:57:26.878Z,2.83
2023-10-27T13:59:53.560Z,2.55
2023-10-27T14:02:21.371Z,2.35
2023-10-27T14:04:48.737Z,2.73
2023-10-27T14:07:15.967Z,2.40
2023-10-27T14:09:42.693Z,2.60
2023-10-27T14:12:10.049Z,2.00
2023-10-27T14:14:36.728Z,2.58
2023-10-27T14:17:03.929Z,2.53
2023-10-27T14:19:30.953Z,2.22
2023-10-27T14:21:58.084Z,3.20
2023-10-27T14:24:25.059Z,3.10
2023-10-27T14:26:53.118Z,2.60
2023-10-27T14:29:22.367Z,3.40
2023-10-27T14:31:49.247Z,2.88
2023-10-27T14:34:16.094Z,3.05
2023-10-27T14:36:44.260Z,3.47
2023-10-27T14:39:14.525Z,3.20
2023-10-27T14:41:42.038Z,3.90
2023-10-27T14:44:08.761Z,3.50
2023-10-27T14:46:35.528Z,3.55
2023-10-27T14:49:02.673Z,3.80
2023-10-27T14:51:29.522Z,3.90
2023-10-27T14:53:56.390Z,4.07
2023-10-27T14:56:23.170Z,3.45
2023-10-27T14:58:53.931Z,3.97
2023-10-27T15:03:48.632Z,4.60
2023-10-27T15:06:15.585Z,4.60
2023-10-27T15:08:42.205Z,4.72
2023-10-27T15:11:09.046Z,3.92
2023-10-27T15:13:36.107Z,4.35
2023-10-27T15:16:15.260Z,4.30
2023-10-27T15:18:43.027Z,4.80
2023-10-27T15:21:11.571Z,4.38
2023-10-27T15:23:38.640Z,4.68
2023-10-27T15:26:12.661Z,4.35
2023-10-27T15:28:39.621Z,4.63
2023-10-27T15:31:08.323Z,4.60
2023-10-27T15:33:36.387Z,4.40
2023-10-27T15:36:11.161Z,5.22
2023-10-27T15:38:43.980Z,4.95
2023-10-27T15:41:31.081Z,5.43
2023-10-27T15:44:00.511Z,5.30
2023-10-27T15:46:30.094Z,5.25
2023-10-27T15:48:56.739Z,5.30
2023-10-27T15:51:23.343Z,5.15
2023-10-27T15:53:51.418Z,4.68
2023-10-27T15:56:21.544Z,4.70
2023-10-27T15:58:48.328Z,4.60
2023-10-27T16:01:15.055Z,4.57
2023-10-27T16:03:41.732Z,4.70
2023-10-27T16:06:08.481Z,4.40
2023-10-27T16:08:35.251Z,4.20
2023-10-27T16:11:03.488Z,4.40
2023-10-27T16:13:30.305Z,3.70
2023-10-27T16:15:57.041Z,3.90
2023-10-27T16:18:25.207Z,2.78
2023-10-27T16:20:52.221Z,2.70
2023-10-27T16:23:18.869Z,2.90
2023-10-27T16:25:45.979Z,2.90
2023-10-27T16:28:12.665Z,3.08
2023-10-27T16:30:39.343Z,2.60
2023-10-27T16:33:07.016Z,3.53
2023-10-27T16:35:37.141Z,3.75
2023-10-27T16:38:03.922Z,3.70
2023-10-27T16:40:31.655Z,3.78
2023-10-27T16:42:58.367Z,3.28
2023-10-27T16:45:26.451Z,3.80
2023-10-27T16:47:53.232Z,3.22
2023-10-27T16:50:21.627Z,3.78
2023-10-27T16:52:48.549Z,4.07
2023-10-27T16:55:15.484Z,4.25
2023-10-27T16:57:42.411Z,3.80
2023-10-27T17:00:10.465Z,4.10
2023-10-27T17:02:37.253Z,4.32
2023-10-27T17:05:05.724Z,4.15
2023-10-27T17:07:32.432Z,4.28
2023-10-27T17:10:04.635Z,4.80
2023-10-27T17:12:34.144Z,4.85
2023-10-27T17:15:00.868Z,4.68
2023-10-27T17:17:27.759Z,5.18
2023-10-27T17:20:01.698Z,4.82
2023-10-27T17:22:40.161Z,5.00
2023-10-27T17:25:08.999Z,5.57
2023-10-27T17:27:35.983Z,5.10
2023-10-27T17:30:04.713Z,5.70
2023-10-27T17:32:31.516Z,5.55
2023-10-27T17:34:58.492Z,5.23
2023-10-27T17:37:25.335Z,5.70
2023-10-27T17:39:52.164Z,5.70
2023-10-27T17:42:18.997Z,5.95
2023-10-27T17:44:46.213Z,6.00
2023-10-27T17:47:14.322Z,6.07
2023-10-27T17:49:41.806Z,5.57
2023-10-27T17:52:09.018Z,6.05
2023-10-27T17:54:36.279Z,5.85
2023-10-27T17:57:04.218Z,6.57
2023-10-27T17:59:32.401Z,5.77
2023-10-27T18:01:59.101Z,5.63
2023-10-27T18:04:26.807Z,7.05
2023-10-27T18:06:55.764Z,6.85
2023-10-27T18:09:22.565Z,6.45
2023-10-27T18:11:49.897Z,6.90
2023-10-27T18:14:18.345Z,6.88
2023-10-27T18:16:47.527Z,6.80
2023-10-27T18:19:15.768Z,6.55
2023-10-27T18:21:42.961Z,6.85
2023-10-27T18:24:11.830Z,7.63
2023-10-27T18:26:38.859Z,7.03
2023-10-27T18:29:05.722Z,7.20
2023-10-27T18:31:32.442Z,7.22
2023-10-27T18:33:59.081Z,7.20
2023-10-27T18:36:25.823Z,7.27
2023-10-27T18:38:52.554Z,7.40
2023-10-27T18:41:19.271Z,7.60
2023-10-27T18:43:48.242Z,7.95
2023-10-27T18:46:15.382Z,7.15
2023-10-27T18:48:42.558Z,7.40
2023-10-27T18:51:09.688Z,7.25
2023-10-27T18:53:37.787Z,7.55
2023-10-27T18:56:09.808Z,7.45
2023-10-27T18:58:37.974Z,7.88
2023-10-27T19:01:09.106Z,8.10
2023-10-27T19:03:48.628Z,7.93
2023-10-27T19:06:16.962Z,7.47
2023-10-27T19:08:45.048Z,9.00
2023-10-27T19:11:13.144Z,8.50
2023-10-27T19:13:41.360Z,9.03
2023-10-27T19:16:09.860Z,8.80
2023-10-27T19:18:38.565Z,9.32
2023-10-27T19:21:11.658Z,7.97
2023-10-27T19:23:39.249Z,8.32
2023-10-27T19:26:18.867Z,8.30
2023-10-27T19:28:50.034Z,8.48
2023-10-27T19:31:18.965Z,8.77
2023-10-27T19:33:49.150Z,9.15
2023-10-27T19:36:16.570Z,9.68
2023-10-27T19:38:43.916Z,9.13
2023-10-27T19:41:12.639Z,9.60
2023-10-27T19:43:39.720Z,8.77
2023-10-27T19:46:07.846Z,8.88
2023-10-27T19:48:36.430Z,9.10
2023-10-27T19:51:04.400Z,8.70
2023-10-27T19:53:31.051Z,10.13
2023-10-27T19:55:58.453Z,9.13
2023-10-27T19:58:25.170Z,8.93
2023-10-27T20:00:52.778Z,9.10
2023-10-27T20:03:21.596Z,8.60
2023-10-27T20:05:51.993Z,9.77
2023-10-27T20:08:19.374Z,9.20
2023-10-27T20:10:49.860Z,8.73
2023-10-27T20:13:17.125Z,8.90
2023-10-27T20:15:45.793Z,9.27
2023-10-27T20:18:15.772Z,9.07
2023-10-27T20:20:45.751Z,9.00
2023-10-27T20:23:13.939Z,10.23
2023-10-27T20:25:41.078Z,10.05
2023-10-27T20:28:08.831Z,10.10
2023-10-27T20:30:36.672Z,9.80
2023-10-27T20:33:03.500Z,9.68
2023-10-27T20:35:30.279Z,10.38
2023-10-27T20:37:57.210Z,9.93
2023-10-27T20:40:25.168Z,9.87
2023-10-27T20:42:52.217Z,9.77
2023-10-27T20:45:19.619Z,10.02
2023-10-27T20:47:47.878Z,9.52
2023-10-27T20:50:15.528Z,9.73
2023-10-27T20:52:43.881Z,8.47
2023-10-27T20:55:10.830Z,9.93
2023-10-27T20:57:38.255Z,9.45
2023-10-27T21:00:05.337Z,9.35
2023-10-27T21:02:32.179Z,8.85
2023-10-27T21:04:59.264Z,9.63
2023-10-27T21:07:26.539Z,9.73
2023-10-27T21:09:53.763Z,7.28
2023-10-27T21:12:20.489Z,7.85
2023-10-27T21:14:47.539Z,8.20
2023-10-27T21:17:15.114Z,8.90
2023-10-27T21:19:41.914Z,9.50
2023-10-27T21:22:08.630Z,9.68
2023-10-27T21:24:35.793Z,9.48
2023-10-27T21:27:03.891Z,9.02
2023-10-27T21:29:30.594Z,8.60
2023-10-27T21:31:57.924Z,8.07
2023-10-27T21:34:24.681Z,8.85
2023-10-27T21:36:51.936Z,8.18
2023-10-27T21:39:18.641Z,8.63
2023-10-27T21:41:45.339Z,8.63
2023-10-27T21:44:12.019Z,8.88
2023-10-27T21:46:38.768Z,8.90
2023-10-27T21:49:05.464Z,8.50
2023-10-27T21:51:32.141Z,8.70
2023-10-27T21:53:58.768Z,8.57
2023-10-27T21:56:25.586Z,7.82
2023-10-27T21:58:52.326Z,7.72
2023-10-27T22:01:19.089Z,8.50
2023-10-27T22:03:45.819Z,8.73
2023-10-27T22:06:12.581Z,7.13
2023-10-27T22:08:42.412Z,8.35
2023-10-27T22:11:10.789Z,8.32
2023-10-27T22:13:39.492Z,7.75
2023-10-27T22:16:09.108Z,8.45
2023-10-27T22:18:36.301Z,8.77
2023-10-27T22:21:13.502Z,9.07
2023-10-27T22:23:41.396Z,11.65
2023-10-27T22:26:09.779Z,8.95
2023-10-27T22:28:36.708Z,9.43
2023-10-27T22:31:05.150Z,8.83
2023-10-27T22:33:31.903Z,8.05
2023-10-27T22:35:58.939Z,8.35
2023-10-27T22:38:26.282Z,7.75
2023-10-27T22:40:53.039Z,6.82
2023-10-27T22:43:19.678Z,6.43
2023-10-27T22:45:46.317Z,6.20
2023-10-27T22:48:13.078Z,6.28
2023-10-27T22:50:39.772Z,6.55
2023-10-27T22:53:06.616Z,6.97
2023-10-27T22:55:33.457Z,7.40
2023-10-27T22:58:00.104Z,5.75
2023-10-27T23:00:27.272Z,5.70
2023-10-27T23:02:57.683Z,6.93
2023-10-27T23:05:26.124Z,6.97
2023-10-27T23:07:54.627Z,7.40
2023-10-27T23:10:21.406Z,6.60
2023-10-27T23:12:49.063Z,6.35
2023-10-27T23:15:16.188Z,5.85
2023-10-27T23:17:43.295Z,7.15
2023-10-27T23:20:13.523Z,7.13
2023-10-27T23:22:40.516Z,6.35
2023-10-27T23:25:09.472Z,6.75
2023-10-27T23:27:36.998Z,6.78
2023-10-27T23:30:07.409Z,7.65
2023-10-27T23:32:34.079Z,6.37
2023-10-27T23:35:00.917Z,6.47
2023-10-27T23:37:28.477Z,6.70
2023-10-27T23:39:55.614Z,7.15
2023-10-27T23:42:22.323Z,6.70
2023-10-27T23:44:49.032Z,7.53
2023-10-27T23:47:16.561Z,6.85
2023-10-27T23:49:43.421Z,7.13
2023-10-27T23:52:10.233Z,6.90
2023-10-27T23:54:40.073Z,7.03
2023-10-27T23:57:06.709Z,6.87
2023-10-27T23:59:35.892Z,7.13
